EDDNLPMA

Guest
Details From EDDN - Nurnberg
To LPMA - Madeira
Flight Number -
Tags Generated
Created
Modified
Stats Distance 1,599 nm / 2,962 km
Max Altitude 0 ft / 0 m
Waypoints 8
Social Downloads 6
Likes 0
Share VATSIM

Download

Looking for another format? Having issues loading an existing format? Contact us
Advertisement - Login to hide

Notes

Generated

Route

EDDN ROBIR TUGLI KARMA BARDI DEKUS MAD LPMA

ID Type Via Altitude Latitude Longitude Leg Dist Tot Dist Heading (true) Name
O EDDN APT - 0 ft / 0 m 49.50055˚ 11.05918˚ - 0 nm - -
ROBIR FIX - 0 ft / 0 m 47.52306˚ 6.03750˚ 232 nm 232 nm 241° / 237° -
TUGLI FIX - 0 ft / 0 m 45.37722˚ 1.52444˚ 226 nm 459 nm 237° / 234° -
KARMA FIX - 0 ft / 0 m 43.12373˚ -2.43946˚ 217 nm 676 nm 233° / 230° -
BARDI FIX - 0 ft / 0 m 40.58349˚ -6.30246˚ 230 nm 907 nm 230° / 227° -
DEKUS FIX - 0 ft / 0 m 38.01528˚ -10.00000˚ 230 nm 1138 nm 229° / 227° -
MAD NDB - 0 ft / 0 m 32.74813˚ -16.70651˚ 455 nm 1593 nm 228° / 224° MADEIRA NDB
O LPMA APT - 0 ft / 0 m 32.68900˚ -16.78409˚ 5 nm 1599 nm 228° / 228° -

Altitude Profile

Advertisement - Login to hide

Weather


0- 5 10 15 20 25 30 35+ Temperature / ° C

Clouds and Precipitation
Forecast for 2017-12-14 18:00 UTC. Updated 32 minutes ago

Ground ~20,000 ft ~40,000 ft Winds

EDDN

Details ICAO EDDN (NUE)
Name Nurnberg
Region Germany - Civil
Timezone Europe/Berlin (UTC+1.0)
Stats Elevation 1,045 ft / 319 m (AMSL)
Location 49.498744° 11.077580°
Runways 1
Magnetic Variation 3.019° E

METAR

EDDN 141520Z 21014KT 9999 BKN048 06/M02 Q0998 R28/29//95 NOSIG

Decode

TAF

TAF TAF EDDN 141100Z 1412/1512 24020G35KT 9999 FEW015 BKN035 BECMG 1414/1416 20012KT TEMPO 1415/1423 SHRA BKN014TCU BECMG 1418/1420 18007KT TEMPO 1423/1502 RA BKN009 TEMPO 1502/1512 26020G30KT 3000 SHRASN BKN008CB

Decode

Departure Runways

ID Width Length Bearing (true) Bearing (mag) Surface Threshold Offset Overrun Length
10 148 ft / 45 m 8,819 ft / 2,688 m 98.60° 95.58° Asphalt 0 ft / 0 m 0 ft / 0 m
28 148 ft / 45 m 8,819 ft / 2,688 m 278.63° 275.61° Asphalt 0 ft / 0 m 0 ft / 0 m

LPMA

Details ICAO LPMA (FNC)
Name Madeira
Region Portugal
Timezone Atlantic/Madeira (UTC+0.0)
Stats Elevation 192 ft / 59 m (AMSL)
Location 32.697704° -16.774449°
Runways 1
Magnetic Variation 4.982° W

METAR

LPMA 141530Z 36006KT 270V040 9999 SCT016 20/13 Q1028

Decode

TAF

TAF LPMA 141100Z 1412/1512 01012KT 9999 SCT015 TEMPO 1412/1512 BKN015

Decode

Destination Runways

ID Width Length Bearing (true) Bearing (mag) Surface Threshold Offset Overrun Length
05 141 ft / 43 m 8,683 ft / 2,647 m 42.98° 47.96° Asphalt 472 ft / 144 m 0 ft / 0 m
23 141 ft / 43 m 8,683 ft / 2,647 m 222.99° 227.97° Asphalt 466 ft / 142 m 0 ft / 0 m

Popular Alternatives